Time;durP1;ratioP1;P1;durP2;ratioP2;P2;SDS_P1;SDS_P2;PMS_P1;PMS_P2;Temp;Humidity;BMP_temperature;BMP_pressure;BME280_temperature;BME280_humidity;BME280_pressure;Samples;Min_cycle;Max_cycle;Signal;HPM_P1;HPM_P2
2021/01/28 00:40:31;;;;;;;10.07;7.32;;;3.60;82.00;;;;;;4995522;28;20086;-62
2021/01/28 00:42:57;;;;;;;9.57;7.22;;;3.60;81.40;;;;;;4998198;28;20030;-62
2021/01/28 00:45:25;;;;;;;11.35;8.00;;;3.70;81.60;;;;;;4998552;28;20025;-61
2021/01/28 00:47:51;;;;;;;10.82;7.82;;;3.60;81.60;;;;;;4979493;28;20023;-62
2021/01/28 00:50:20;;;;;;;9.93;7.53;;;3.60;81.60;;;;;;4998225;28;20026;-60
2021/01/28 00:52:46;;;;;;;9.60;7.47;;;3.60;81.80;;;;;;4995372;28;21010;-62
2021/01/28 00:55:17;;;;;;;11.27;7.85;;;3.60;81.70;;;;;;4995340;28;20049;-62
2021/01/28 00:57:42;;;;;;;11.95;8.73;;;3.70;82.00;;;;;;4981152;28;20023;-62
2021/01/28 01:00:25;;;;;;;10.27;7.78;;;3.70;81.90;;;;;;4996934;28;20080;-62
2021/01/28 01:02:51;;;;;;;8.98;7.50;;;3.70;82.10;;;;;;4992272;28;20634;-62
2021/01/28 01:05:21;;;;;;;9.05;7.25;;;3.70;81.90;;;;;;4998367;28;20132;-62
2021/01/28 01:07:48;;;;;;;8.93;7.15;;;3.70;82.00;;;;;;4980895;28;20112;-62
2021/01/28 01:10:34;;;;;;;8.75;7.07;;;3.70;82.00;;;;;;4996603;28;20053;-62
2021/01/28 01:13:00;;;;;;;9.73;7.05;;;3.80;82.40;;;;;;4995157;28;20559;-62
2021/01/28 01:15:25;;;;;;;9.50;7.25;;;3.80;82.00;;;;;;4980845;28;20046;-62
2021/01/28 01:17:51;;;;;;;10.02;7.63;;;3.80;81.90;;;;;;4997451;28;20105;-62
2021/01/28 01:20:22;;;;;;;9.48;7.55;;;3.80;81.90;;;;;;4997027;28;20042;-62
2021/01/28 01:22:48;;;;;;;9.90;7.28;;;3.90;82.10;;;;;;4996584;28;20053;-62
2021/01/28 01:25:15;;;;;;;10.02;6.97;;;3.80;81.80;;;;;;4980423;28;20073;-61
2021/01/28 01:27:41;;;;;;;10.30;7.68;;;3.90;82.00;;;;;;4978064;28;20521;-63
2021/01/28 01:30:08;;;;;;;9.20;7.53;;;3.90;81.80;;;;;;4998082;28;20088;-61
2021/01/28 01:32:34;;;;;;;9.18;6.90;;;3.90;81.80;;;;;;4996153;28;20640;-62
2021/01/28 01:35:00;;;;;;;9.15;7.32;;;3.90;81.80;;;;;;4979718;28;20069;-62
2021/01/28 01:37:25;;;;;;;11.13;7.78;;;3.90;81.90;;;;;;4998343;28;20026;-63
2021/01/28 01:39:51;;;;;;;9.93;7.38;;;3.90;81.90;;;;;;4998204;28;20075;-62
2021/01/28 01:42:18;;;;;;;11.35;8.02;;;3.90;81.80;;;;;;4995976;28;20030;-62
2021/01/28 01:44:44;;;;;;;10.98;8.40;;;3.90;81.80;;;;;;4980013;28;20029;-62
2021/01/28 01:47:36;;;;;;;10.30;7.68;;;4.00;81.60;;;;;;4997738;28;20038;-62
2021/01/28 01:50:10;;;;;;;10.70;8.10;;;4.00;81.70;;;;;;4998120;28;20532;-62
2021/01/28 01:52:35;;;;;;;10.82;8.05;;;4.00;81.70;;;;;;4980313;28;20417;-62
2021/01/28 01:55:03;;;;;;;10.63;7.88;;;4.00;81.70;;;;;;4994615;28;20035;-63
2021/01/28 01:57:36;;;;;;;10.93;7.93;;;4.00;81.80;;;;;;4994331;28;20255;-62
2021/01/28 02:00:14;;;;;;;10.20;7.65;;;4.00;81.90;;;;;;4977615;28;20592;-61
2021/01/28 02:02:44;;;;;;;11.00;7.93;;;4.00;81.90;;;;;;4979404;28;20512;-63
2021/01/28 02:05:29;;;;;;;11.48;8.05;;;4.00;81.70;;;;;;4997903;28;20038;-63
2021/01/28 02:07:55;;;;;;;12.95;8.15;;;4.00;81.90;;;;;;4995556;28;20030;-62
2021/01/28 02:10:21;;;;;;;10.05;7.68;;;4.00;81.60;;;;;;4996080;28;20041;-62
2021/01/28 02:12:47;;;;;;;11.20;8.43;;;4.00;81.60;;;;;;4995127;28;20089;-60
2021/01/28 02:15:14;;;;;;;10.27;7.70;;;4.00;81.60;;;;;;4996707;28;20042;-61
2021/01/28 02:17:42;;;;;;;10.05;7.57;;;4.00;81.70;;;;;;4996963;28;20030;-61
2021/01/28 02:20:30;;;;;;;11.10;7.80;;;4.00;81.80;;;;;;4986028;28;20087;-63
2021/01/28 02:23:21;;;;;;;12.50;8.82;;;4.00;81.80;;;;;;4997858;28;20105;-62
2021/01/28 02:25:49;;;;;;;11.55;8.40;;;4.10;81.80;;;;;;4978351;28;20037;-62
2021/01/28 02:28:16;;;;;;;10.48;7.95;;;4.10;82.00;;;;;;4994824;28;20042;-62
2021/01/28 02:30:42;;;;;;;9.93;7.32;;;4.10;81.60;;;;;;4998255;28;20066;-62
2021/01/28 02:33:11;;;;;;;12.38;8.48;;;4.10;81.60;;;;;;5000939;28;20029;-62
2021/01/28 02:35:38;;;;;;;10.40;7.85;;;4.10;81.50;;;;;;5002010;28;20397;-63
2021/01/28 02:38:07;;;;;;;11.98;8.07;;;4.10;81.40;;;;;;5001461;28;20030;-62
2021/01/28 02:40:34;;;;;;;11.73;8.40;;;4.20;81.40;;;;;;4999297;28;20104;-62
2021/01/28 02:43:00;;;;;;;12.00;8.75;;;4.20;81.30;;;;;;5000597;28;20478;-63
2021/01/28 02:45:34;;;;;;;12.38;8.77;;;4.20;81.30;;;;;;4983564;28;20678;-62
2021/01/28 02:48:04;;;;;;;10.88;7.85;;;4.20;81.20;;;;;;4998791;28;20035;-62
2021/01/28 02:50:30;;;;;;;12.25;8.63;;;4.20;81.10;;;;;;4998946;28;20061;-62
2021/01/28 02:52:58;;;;;;;11.60;8.20;;;4.20;81.00;;;;;;5000362;28;20046;-63
2021/01/28 02:55:26;;;;;;;13.55;9.15;;;4.20;81.10;;;;;;5000968;28;20053;-62
2021/01/28 02:57:51;;;;;;;14.77;9.50;;;4.20;81.00;;;;;;4997105;28;20862;-62
2021/01/28 03:00:20;;;;;;;13.07;8.88;;;4.20;81.00;;;;;;5000128;28;20105;-62
2021/01/28 03:02:50;;;;;;;14.80;9.90;;;4.20;81.00;;;;;;4999879;28;20041;-62
2021/01/28 03:05:15;;;;;;;15.35;9.98;;;4.20;81.10;;;;;;4998087;28;20551;-62
2021/01/28 03:07:41;;;;;;;16.02;10.65;;;4.20;81.00;;;;;;4998250;28;20058;-63
2021/01/28 03:10:07;;;;;;;17.77;10.73;;;4.10;80.90;;;;;;4986279;28;20378;-62
2021/01/28 03:12:33;;;;;;;16.15;10.13;;;4.20;80.90;;;;;;4997037;28;20498;-63
2021/01/28 03:14:59;;;;;;;16.58;10.65;;;4.20;80.90;;;;;;4999671;28;20037;-62
2021/01/28 03:17:25;;;;;;;18.27;11.82;;;4.10;81.00;;;;;;4998232;28;20105;-63
2021/01/28 03:19:50;;;;;;;18.33;10.85;;;4.10;81.10;;;;;;4997389;28;20550;-63
2021/01/28 03:22:16;;;;;;;19.95;11.35;;;4.10;81.10;;;;;;4987029;28;20033;-62
2021/01/28 03:24:42;;;;;;;18.35;11.32;;;4.10;81.10;;;;;;4999787;28;20034;-62
2021/01/28 03:27:07;;;;;;;19.77;11.70;;;4.10;81.20;;;;;;4998557;28;20168;-62
2021/01/28 03:29:33;;;;;;;21.02;12.02;;;4.10;81.20;;;;;;4980840;28;20031;-62
2021/01/28 03:31:59;;;;;;;19.48;11.60;;;4.00;81.10;;;;;;4981680;28;20574;-62
2021/01/28 03:34:24;;;;;;;17.88;11.30;;;4.10;81.30;;;;;;4987378;28;20034;-62
2021/01/28 03:36:50;;;;;;;18.13;11.57;;;4.10;81.40;;;;;;4998806;28;20041;-62
2021/01/28 03:39:15;;;;;;;17.20;10.77;;;4.10;81.40;;;;;;4998966;28;20033;-62
2021/01/28 03:41:41;;;;;;;19.40;12.07;;;4.00;81.30;;;;;;4985843;28;20076;-64
2021/01/28 03:44:07;;;;;;;18.15;11.52;;;4.10;81.50;;;;;;4998666;28;20441;-62
2021/01/28 03:46:32;;;;;;;19.60;12.00;;;4.10;81.40;;;;;;4999314;28;20037;-62
2021/01/28 03:48:58;;;;;;;17.10;9.95;;;4.10;81.40;;;;;;4998961;28;20034;-62
2021/01/28 03:51:24;;;;;;;19.15;11.65;;;4.10;81.40;;;;;;4997425;28;20350;-62
2021/01/28 03:53:49;;;;;;;17.98;11.57;;;4.00;81.40;;;;;;4997161;28;20081;-63
2021/01/28 03:56:15;;;;;;;18.38;11.50;;;4.10;81.50;;;;;;4999966;28;20757;-62
2021/01/28 03:58:41;;;;;;;19.30;11.73;;;4.00;81.50;;;;;;4995895;28;20042;-63
2021/01/28 04:01:07;;;;;;;19.83;11.85;;;4.00;81.70;;;;;;4996763;28;20088;-63
2021/01/28 04:03:33;;;;;;;19.70;11.48;;;4.00;81.80;;;;;;4981529;28;20026;-63
2021/01/28 04:05:58;;;;;;;19.13;11.65;;;4.00;81.80;;;;;;4999349;28;20125;-62
2021/01/28 04:08:24;;;;;;;18.40;11.07;;;4.00;81.90;;;;;;4997069;28;20501;-63
2021/01/28 04:10:50;;;;;;;18.73;11.10;;;4.00;81.90;;;;;;4994605;28;20065;-63
2021/01/28 04:13:15;;;;;;;18.52;10.45;;;4.00;81.90;;;;;;4999084;28;20038;-63
2021/01/28 04:15:41;;;;;;;16.30;10.27;;;4.00;81.80;;;;;;4997173;28;20078;-62
2021/01/28 04:18:07;;;;;;;16.98;10.38;;;4.00;81.90;;;;;;4999093;28;20493;-62
2021/01/28 04:20:37;;;;;;;16.02;10.02;;;4.00;82.70;;;;;;4997666;28;20030;-62
2021/01/28 04:23:03;;;;;;;16.30;9.52;;;4.00;82.10;;;;;;4998704;28;20521;-62
2021/01/28 04:25:29;;;;;;;13.68;8.48;;;4.00;82.00;;;;;;4999662;28;20116;-62
2021/01/28 04:27:56;;;;;;;11.70;8.05;;;4.00;82.00;;;;;;4996079;28;20084;-63
2021/01/28 04:30:30;;;;;;;11.93;7.70;;;3.90;82.10;;;;;;4998948;28;20668;-62
2021/01/28 04:32:57;;;;;;;11.13;7.03;;;3.90;82.10;;;;;;4999433;28;20402;-62
2021/01/28 04:35:22;;;;;;;9.27;6.40;;;3.90;82.10;;;;;;4997627;28;20044;-62
2021/01/28 04:37:49;;;;;;;9.25;6.10;;;3.90;82.10;;;;;;4991794;28;20034;-62
2021/01/28 04:40:27;;;;;;;8.13;5.97;;;3.90;82.20;;;;;;4991220;28;20525;-62
2021/01/28 04:42:54;;;;;;;8.18;5.35;;;3.90;82.60;;;;;;4987230;28;20037;-63
2021/01/28 04:45:23;;;;;;;6.70;5.15;;;3.90;82.30;;;;;;4972311;28;20034;-62
2021/01/28 04:47:54;;;;;;;6.13;4.68;;;3.80;82.30;;;;;;4976219;28;20521;-62
2021/01/28 04:50:25;;;;;;;6.82;5.03;;;3.80;82.60;;;;;;4975342;28;20374;-62
2021/01/28 04:52:54;;;;;;;8.93;5.35;;;3.80;82.50;;;;;;4978235;28;20459;-63
2021/01/28 04:55:24;;;;;;;6.97;4.70;;;3.80;82.60;;;;;;4997498;28;20053;-63
2021/01/28 04:57:50;;;;;;;6.03;4.72;;;3.80;82.80;;;;;;4980572;28;20030;-63
2021/01/28 05:00:16;;;;;;;5.75;4.45;;;3.80;82.80;;;;;;4976220;28;20507;-62
2021/01/28 05:02:41;;;;;;;5.15;3.95;;;3.80;82.80;;;;;;4993589;28;20494;-62
2021/01/28 05:05:08;;;;;;;5.03;3.97;;;3.80;83.00;;;;;;4992629;28;20529;-62
2021/01/28 05:07:36;;;;;;;5.53;4.30;;;3.80;83.00;;;;;;4994549;28;20194;-61
2021/01/28 05:10:04;;;;;;;6.25;4.53;;;3.80;83.00;;;;;;4991083;28;20030;-63
2021/01/28 05:12:30;;;;;;;5.90;4.45;;;3.80;83.10;;;;;;4991820;28;20034;-62
2021/01/28 05:15:22;;;;;;;11.35;7.18;;;3.90;83.40;;;;;;4998314;28;20041;-63
2021/01/28 05:17:58;;;;;;;5.40;4.00;;;3.80;83.90;;;;;;4996373;28;20045;-62
2021/01/28 05:20:26;;;;;;;7.55;4.97;;;3.80;83.50;;;;;;4996397;28;20498;-61
2021/01/28 05:23:35;;;;;;;6.78;4.50;;;3.90;83.30;;;;;;4997283;28;20031;-62
2021/01/28 05:26:02;;;;;;;5.30;3.78;;;3.80;84.20;;;;;;4987759;28;20084;-62
2021/01/28 05:28:28;;;;;;;5.03;3.85;;;3.80;83.30;;;;;;4998246;28;20049;-62
2021/01/28 05:30:56;;;;;;;4.68;3.67;;;3.90;83.50;;;;;;4994364;28;20038;-62
2021/01/28 05:33:34;;;;;;;5.95;4.32;;;3.90;83.50;;;;;;4993368;28;20038;-63
2021/01/28 05:36:16;;;;;;;5.55;3.95;;;3.90;83.70;;;;;;4958167;28;20160;-62
2021/01/28 05:38:54;;;;;;;7.53;5.60;;;3.90;83.90;;;;;;4993954;28;20026;-62
2021/01/28 05:41:31;;;;;;;9.43;7.15;;;3.90;84.10;;;;;;4996001;28;20045;-63
2021/01/28 05:44:11;;;;;;;6.53;5.30;;;3.90;84.00;;;;;;4997288;28;20114;-62
2021/01/28 05:46:37;;;;;;;5.45;4.53;;;3.90;83.80;;;;;;4997357;28;20030;-62
2021/01/28 05:49:20;;;;;;;5.35;3.97;;;3.90;83.70;;;;;;4996565;28;20041;-61
2021/01/28 05:51:47;;;;;;;4.15;3.35;;;3.90;84.30;;;;;;4995968;28;20035;-63
2021/01/28 05:54:24;;;;;;;4.15;3.30;;;3.90;83.70;;;;;;4996107;28;20735;-62
2021/01/28 05:57:13;;;;;;;4.18;3.45;;;3.90;84.20;;;;;;4997025;28;20070;-62
2021/01/28 05:59:48;;;;;;;3.58;3.00;;;3.90;84.40;;;;;;4997190;28;20121;-61
2021/01/28 06:02:19;;;;;;;3.10;2.83;;;3.90;83.80;;;;;;4994695;28;20522;-61
2021/01/28 06:04:47;;;;;;;3.95;3.08;;;3.90;84.10;;;;;;5000372;28;20411;-56
2021/01/28 06:07:39;;;;;;;3.38;2.90;;;4.00;84.20;;;;;;4994050;28;20034;-55
2021/01/28 06:10:29;;;;;;;3.63;2.85;;;3.90;84.50;;;;;;4985478;28;20054;-60
2021/01/28 06:13:33;;;;;;;3.83;2.70;;;4.00;84.40;;;;;;4997262;28;20112;-61
2021/01/28 06:16:11;;;;;;;4.20;2.92;;;4.00;84.70;;;;;;4981144;28;20037;-60
2021/01/28 06:19:08;;;;;;;3.75;2.97;;;4.00;84.40;;;;;;4964072;28;20763;-60
2021/01/28 06:21:36;;;;;;;4.47;2.72;;;4.00;84.90;;;;;;4982477;28;20097;-62
2021/01/28 06:24:14;;;;;;;3.58;3.00;;;4.00;84.20;;;;;;4981261;28;20543;-61
2021/01/28 06:27:09;;;;;;;4.55;3.30;;;4.10;84.40;;;;;;4980024;28;20589;-59
2021/01/28 06:30:04;;;;;;;3.05;2.63;;;4.10;84.40;;;;;;4980216;28;20076;-60
2021/01/28 06:32:57;;;;;;;2.95;2.67;;;4.10;84.40;;;;;;4947175;28;20031;-62
2021/01/28 06:36:01;;;;;;;4.25;3.20;;;4.10;84.40;;;;;;4981508;28;20039;-61
2021/01/28 06:38:52;;;;;;;5.20;4.20;;;4.10;84.60;;;;;;4980074;28;20047;-60
2021/01/28 06:41:23;;;;;;;3.35;3.00;;;4.10;84.60;;;;;;4979701;28;20437;-59
2021/01/28 06:44:05;;;;;;;3.60;2.97;;;4.20;84.30;;;;;;4979645;28;20031;-62
2021/01/28 06:46:30;;;;;;;3.95;3.20;;;4.20;84.50;;;;;;4980698;28;20042;-62
2021/01/28 06:49:20;;;;;;;3.03;2.70;;;4.10;84.10;;;;;;4980543;28;20034;-63
2021/01/28 06:51:53;;;;;;;3.35;3.05;;;4.20;84.40;;;;;;4980535;28;20035;-61
2021/01/28 06:54:47;;;;;;;2.60;2.40;;;4.20;84.20;;;;;;4981034;28;20034;-62
2021/01/28 06:57:48;;;;;;;2.78;2.53;;;4.20;84.70;;;;;;4982298;28;20041;-60
2021/01/28 07:00:35;;;;;;;2.75;2.55;;;4.20;84.70;;;;;;4981476;28;20488;-59
2021/01/28 07:03:22;;;;;;;2.78;2.58;;;4.20;84.40;;;;;;4988282;28;20030;-62
2021/01/28 07:05:59;;;;;;;3.28;2.97;;;4.20;84.60;;;;;;4982693;28;20026;-61
2021/01/28 07:08:39;;;;;;;2.78;2.58;;;4.20;84.20;;;;;;5000397;28;20026;-61
2021/01/28 07:11:05;;;;;;;2.95;2.55;;;4.20;84.10;;;;;;4999828;28;20509;-60
2021/01/28 07:13:37;;;;;;;3.03;2.72;;;4.20;84.00;;;;;;4997742;28;20117;-59
2021/01/28 07:16:13;;;;;;;3.80;3.47;;;4.20;84.20;;;;;;4999330;28;20034;-59
2021/01/28 07:18:52;;;;;;;4.07;3.50;;;4.30;84.40;;;;;;4982128;28;20030;-60
2021/01/28 07:21:40;;;;;;;3.88;3.55;;;4.30;84.50;;;;;;4979978;28;20034;-61
2021/01/28 07:24:12;;;;;;;3.60;3.30;;;4.30;84.60;;;;;;5000374;28;20033;-62
2021/01/28 07:27:03;;;;;;;3.53;3.00;;;4.30;84.40;;;;;;4999057;28;20037;-60
2021/01/28 07:29:33;;;;;;;3.22;2.92;;;4.30;84.70;;;;;;4999366;28;20037;-58
2021/01/28 07:32:05;;;;;;;2.70;2.50;;;4.40;84.40;;;;;;4999310;28;20442;-61
2021/01/28 07:34:31;;;;;;;3.67;3.38;;;4.40;84.50;;;;;;5000286;28;20107;-61
2021/01/28 07:37:24;;;;;;;3.35;2.92;;;4.40;84.40;;;;;;4998387;28;20050;-62
2021/01/28 07:39:50;;;;;;;3.08;2.78;;;4.40;84.90;;;;;;4998517;28;20239;-61
2021/01/28 07:42:21;;;;;;;5.78;5.05;;;4.40;84.40;;;;;;4997917;28;20041;-62
2021/01/28 07:44:49;;;;;;;7.00;6.22;;;4.40;84.60;;;;;;4998967;28;20026;-60
2021/01/28 07:47:35;;;;;;;7.10;6.40;;;4.50;84.50;;;;;;4998264;28;20046;-61
2021/01/28 07:50:29;;;;;;;5.22;4.53;;;4.50;85.00;;;;;;4985370;28;20064;-60
2021/01/28 07:52:57;;;;;;;3.90;3.60;;;4.50;85.10;;;;;;4994417;28;20046;-58
2021/01/28 07:55:41;;;;;;;3.83;3.47;;;4.50;84.60;;;;;;4980266;28;20035;-59
2021/01/28 07:58:24;;;;;;;4.97;3.65;;;4.50;86.00;;;;;;4978710;28;20026;-60
2021/01/28 08:00:51;;;;;;;4.70;3.47;;;4.50;85.10;;;;;;4994447;28;20037;-61
2021/01/28 08:03:33;;;;;;;3.08;2.78;;;4.50;84.70;;;;;;4977297;28;20588;-57
2021/01/28 08:06:10;;;;;;;2.60;2.40;;;4.50;85.00;;;;;;4983451;28;20117;-61
2021/01/28 08:08:36;;;;;;;2.47;2.28;;;4.60;84.80;;;;;;4992708;28;20038;-61
2021/01/28 08:11:19;;;;;;;2.40;2.20;;;4.60;84.80;;;;;;4957282;28;20051;-61
2021/01/28 08:13:46;;;;;;;2.33;2.13;;;4.60;85.20;;;;;;4977813;28;20108;-62
2021/01/28 08:16:17;;;;;;;2.03;1.92;;;4.60;84.70;;;;;;4979028;28;20045;-61
2021/01/28 08:18:43;;;;;;;2.20;2.00;;;4.60;85.00;;;;;;4977508;28;20034;-61
2021/01/28 08:21:18;;;;;;;2.30;2.10;;;4.60;84.90;;;;;;4978512;28;20038;-62
2021/01/28 08:23:44;;;;;;;;;;;4.60;85.50;;;;;;4979094;28;20398;-58
2021/01/28 08:26:13;;;;;;;4.20;2.33;;;4.70;86.10;;;;;;4978019;28;19922;-56
2021/01/28 08:28:44;;;;;;;2.22;2.03;;;4.70;84.90;;;;;;4977748;28;20041;-57
2021/01/28 08:31:25;;;;;;;3.70;2.95;;;4.70;85.20;;;;;;4977554;28;20514;-59
2021/01/28 08:33:59;;;;;;;4.25;2.70;;;4.70;85.30;;;;;;4979361;28;20074;-58
2021/01/28 08:36:55;;;;;;;3.30;2.45;;;4.70;85.30;;;;;;4968109;28;20062;-60
2021/01/28 08:39:34;;;;;;;3.47;2.40;;;4.70;85.80;;;;;;4983702;28;20041;-59
2021/01/28 08:42:06;;;;;;;2.53;2.33;;;4.70;85.40;;;;;;4985967;28;20528;-61
2021/01/28 08:44:34;;;;;;;2.88;2.58;;;4.80;84.90;;;;;;4978536;28;20050;-61
2021/01/28 08:47:20;;;;;;;2.50;2.10;;;4.80;85.10;;;;;;4979190;28;20434;-60
2021/01/28 08:50:06;;;;;;;3.08;2.03;;;4.80;85.60;;;;;;4967647;28;20035;-62
2021/01/28 08:52:33;;;;;;;2.72;2.13;;;4.80;85.30;;;;;;4993432;28;20027;-61
2021/01/28 08:55:06;;;;;;;2.05;1.80;;;4.80;85.10;;;;;;4978453;28;20077;-59
2021/01/28 08:57:32;;;;;;;5.45;2.60;;;4.80;86.00;;;;;;4976753;28;20051;-57
2021/01/28 09:00:01;;;;;;;4.10;2.47;;;4.80;85.00;;;;;;4977729;28;20030;-58
2021/01/28 09:02:34;;;;;;;4.13;2.50;;;4.80;85.10;;;;;;4976553;28;20035;-61
2021/01/28 09:05:26;;;;;;;5.28;2.72;;;4.80;85.10;;;;;;4979278;28;20031;-59
2021/01/28 09:07:58;;;;;;;5.60;3.15;;;4.80;85.30;;;;;;4955228;28;20050;-60
2021/01/28 09:10:40;;;;;;;3.80;2.47;;;4.90;84.90;;;;;;4978622;28;20045;-62
2021/01/28 09:13:22;;;;;;;3.78;2.75;;;4.90;85.10;;;;;;4978137;28;20058;-62
2021/01/28 09:16:04;;;;;;;2.30;2.10;;;4.90;85.30;;;;;;4977649;28;20042;-59
2021/01/28 09:18:33;;;;;;;2.10;1.90;;;4.90;84.70;;;;;;4978186;28;20173;-62
2021/01/28 09:21:11;;;;;;;2.63;2.42;;;4.90;84.90;;;;;;4977241;28;20046;-61
2021/01/28 09:23:37;;;;;;;2.65;2.00;;;4.90;85.40;;;;;;4976774;28;20034;-62
2021/01/28 09:26:19;;;;;;;2.53;1.90;;;4.90;85.10;;;;;;4977579;28;20034;-61
2021/01/28 09:28:44;;;;;;;2.63;2.15;;;4.90;85.40;;;;;;4976725;28;20041;-62
2021/01/28 09:31:31;;;;;;;2.25;2.05;;;4.90;85.10;;;;;;4978784;28;20035;-61
2021/01/28 09:33:56;;;;;;;2.33;2.13;;;4.90;86.00;;;;;;4978030;28;20039;-62
2021/01/28 09:36:29;;;;;;;1.70;1.60;;;4.90;85.40;;;;;;4959641;28;20035;-61
2021/01/28 09:39:01;;;;;;;1.80;1.70;;;4.90;85.50;;;;;;4978888;28;20027;-61
2021/01/28 09:41:50;;;;;;;1.77;1.67;;;4.90;85.50;;;;;;4980769;28;20031;-61
2021/01/28 09:44:33;;;;;;;5.25;1.45;;;4.90;85.30;;;;;;4982279;28;20030;-60
2021/01/28 09:47:30;;;;;;;2.13;1.92;;;5.00;85.70;;;;;;4986052;28;20355;-62
2021/01/28 09:49:58;;;;;;;2.17;1.80;;;4.90;85.90;;;;;;5000444;28;20061;-61
2021/01/28 09:52:34;;;;;;;1.90;1.80;;;4.90;85.30;;;;;;4984675;28;20375;-61
2021/01/28 09:55:06;;;;;;;1.63;1.52;;;4.90;85.40;;;;;;5001601;28;20039;-62
2021/01/28 09:57:32;;;;;;;2.10;1.60;;;5.00;85.50;;;;;;5001275;28;20069;-60
2021/01/28 09:59:58;;;;;;;1.60;1.48;;;5.00;85.50;;;;;;5001702;28;20073;-61
2021/01/28 10:02:50;;;;;;;1.40;1.30;;;5.00;85.70;;;;;;4982541;28;20025;-62
2021/01/28 10:05:20;;;;;;;1.30;1.20;;;5.00;86.40;;;;;;5000799;28;20113;-62
2021/01/28 10:07:47;;;;;;;1.40;1.30;;;5.00;86.00;;;;;;4999797;28;20038;-61
2021/01/28 10:10:15;;;;;;;1.80;1.70;;;5.00;86.10;;;;;;5000697;28;20033;-60
2021/01/28 10:12:42;;;;;;;1.63;1.52;;;5.10;86.20;;;;;;4995648;28;20046;-61
2021/01/28 10:15:09;;;;;;;1.80;1.63;;;5.10;86.30;;;;;;4981380;28;20085;-63
2021/01/28 10:17:35;;;;;;;1.40;1.30;;;5.10;86.30;;;;;;4981159;28;20105;-62
2021/01/28 10:20:00;;;;;;;1.20;1.10;;;5.20;86.20;;;;;;4980819;28;20043;-62
2021/01/28 10:22:26;;;;;;;1.20;1.10;;;5.20;86.10;;;;;;4981073;28;20042;-62
2021/01/28 10:24:53;;;;;;;0.80;0.80;;;5.20;86.30;;;;;;4981613;28;20034;-62
2021/01/28 10:27:18;;;;;;;1.17;1.08;;;5.30;86.70;;;;;;4980942;28;20046;-62
2021/01/28 10:29:44;;;;;;;1.67;1.35;;;5.40;86.90;;;;;;4980697;28;20031;-62
2021/01/28 10:32:13;;;;;;;1.20;1.10;;;5.40;86.80;;;;;;4994789;28;20041;-62
2021/01/28 10:34:39;;;;;;;2.08;0.93;;;5.50;87.00;;;;;;4982426;28;20031;-63
2021/01/28 10:37:05;;;;;;;0.90;0.90;;;5.50;86.80;;;;;;4979924;28;20035;-62
2021/01/28 10:39:31;;;;;;;0.80;0.80;;;5.60;86.80;;;;;;4963855;28;20584;-62
2021/01/28 10:41:56;;;;;;;0.90;0.85;;;5.60;86.60;;;;;;4964119;28;20042;-62
2021/01/28 10:44:23;;;;;;;1.17;0.70;;;5.70;86.80;;;;;;4980056;28;20134;-62
2021/01/28 10:46:49;;;;;;;1.15;0.88;;;5.70;86.60;;;;;;4985344;28;20089;-63
2021/01/28 10:49:15;;;;;;;0.77;0.60;;;5.70;86.60;;;;;;4991179;28;20110;-60
2021/01/28 10:51:41;;;;;;;0.55;0.55;;;5.80;86.60;;;;;;4978724;28;20121;-61
2021/01/28 10:54:07;;;;;;;0.60;0.60;;;5.80;86.70;;;;;;4978166;28;20035;-62
2021/01/28 10:56:32;;;;;;;1.60;0.40;;;5.80;86.50;;;;;;4981024;28;20035;-62
2021/01/28 10:58:58;;;;;;;0.30;0.30;;;5.90;86.50;;;;;;4979443;28;20038;-63
2021/01/28 11:01:24;;;;;;;0.60;0.60;;;5.90;86.30;;;;;;4975326;28;20142;-62
2021/01/28 11:03:50;;;;;;;0.40;0.40;;;5.90;86.40;;;;;;4977945;28;20383;-62
2021/01/28 11:06:15;;;;;;;0.50;0.43;;;6.00;86.40;;;;;;4976059;28;20506;-63
2021/01/28 11:08:41;;;;;;;0.60;0.60;;;6.00;86.30;;;;;;4979350;28;20555;-60
2021/01/28 11:11:07;;;;;;;0.35;0.35;;;6.00;86.30;;;;;;4977565;28;20511;-61
2021/01/28 11:13:34;;;;;;;0.85;0.77;;;6.00;86.30;;;;;;4980433;28;20045;-62
2021/01/28 11:15:59;;;;;;;1.20;1.10;;;6.10;86.30;;;;;;4990788;28;20046;-63
2021/01/28 11:18:25;;;;;;;0.68;0.60;;;6.10;86.20;;;;;;4982275;28;20506;-62
2021/01/28 11:20:51;;;;;;;0.40;0.40;;;6.10;86.20;;;;;;4979949;28;20029;-62
2021/01/28 11:23:16;;;;;;;0.40;0.40;;;6.20;86.20;;;;;;4979560;28;20062;-60
2021/01/28 11:25:42;;;;;;;0.40;0.40;;;6.20;86.10;;;;;;4980685;28;20027;-62
2021/01/28 11:28:08;;;;;;;0.40;0.30;;;6.20;86.00;;;;;;4980599;28;20066;-63
2021/01/28 11:30:35;;;;;;;0.30;0.20;;;6.20;86.00;;;;;;4976307;28;20045;-62
2021/01/28 11:33:03;;;;;;;0.30;0.30;;;6.30;86.20;;;;;;4981516;28;20417;-59
2021/01/28 11:35:31;;;;;;;0.65;0.40;;;6.30;86.10;;;;;;4980598;28;20525;-62
2021/01/28 11:37:59;;;;;;;0.20;0.20;;;6.30;86.30;;;;;;4979675;28;20065;-62
2021/01/28 11:40:27;;;;;;;0.65;0.50;;;6.40;86.50;;;;;;4977657;28;20117;-64
2021/01/28 11:42:52;;;;;;;0.20;0.20;;;6.40;86.30;;;;;;4978000;28;20023;-63
2021/01/28 11:45:32;;;;;;;0.40;0.32;;;6.40;86.20;;;;;;4979299;28;20038;-61
2021/01/28 11:47:58;;;;;;;1.63;0.40;;;6.40;86.30;;;;;;4978223;28;20035;-59
2021/01/28 11:50:24;;;;;;;0.30;0.30;;;6.50;86.40;;;;;;4960318;28;20023;-62
2021/01/28 11:52:49;;;;;;;0.28;0.28;;;6.50;86.30;;;;;;4977925;28;20406;-63
2021/01/28 11:55:19;;;;;;;0.20;0.20;;;6.60;86.50;;;;;;4978638;28;20122;-63
2021/01/28 11:57:44;;;;;;;0.20;0.20;;;6.60;86.50;;;;;;4979182;28;20737;-63
2021/01/28 12:00:13;;;;;;;0.20;0.20;;;6.60;86.50;;;;;;4978311;28;20038;-62
2021/01/28 12:02:39;;;;;;;0.40;0.30;;;6.60;86.70;;;;;;4977916;28;20038;-63
2021/01/28 12:05:07;;;;;;;0.30;0.30;;;6.70;86.90;;;;;;4979532;28;20598;-63
2021/01/28 12:07:33;;;;;;;0.30;0.22;;;6.70;86.90;;;;;;4979632;28;20034;-63
2021/01/28 12:09:58;;;;;;;0.30;0.30;;;6.80;86.90;;;;;;4977440;28;20089;-61
2021/01/28 12:12:24;;;;;;;0.30;0.30;;;6.80;86.90;;;;;;4976972;28;20109;-63
2021/01/28 12:14:49;;;;;;;0.50;0.38;;;6.90;87.00;;;;;;4998810;28;20101;-63
2021/01/28 12:17:15;;;;;;;0.30;0.30;;;6.90;87.10;;;;;;4997309;28;20125;-62
2021/01/28 12:19:41;;;;;;;0.30;0.20;;;6.90;86.90;;;;;;4981691;28;20053;-60
2021/01/28 12:22:06;;;;;;;0.30;0.20;;;6.90;87.00;;;;;;4981749;28;20061;-62
2021/01/28 12:24:33;;;;;;;0.90;0.47;;;7.00;87.20;;;;;;4997704;28;20441;-61
2021/01/28 12:26:59;;;;;;;0.30;0.30;;;7.10;87.30;;;;;;4984074;28;20045;-63
2021/01/28 12:29:26;;;;;;;0.20;0.20;;;7.10;87.30;;;;;;4996446;28;20033;-63
2021/01/28 12:31:52;;;;;;;0.50;0.40;;;7.10;87.30;;;;;;4998353;28;20039;-63
2021/01/28 12:34:21;;;;;;;1.10;0.60;;;7.20;87.30;;;;;;4981613;28;20532;-63
2021/01/28 12:36:47;;;;;;;0.32;0.32;;;7.30;87.20;;;;;;4995123;28;20042;-63
2021/01/28 12:39:13;;;;;;;0.30;0.30;;;7.30;87.20;;;;;;4996452;28;20506;-63
2021/01/28 12:41:39;;;;;;;0.20;0.20;;;7.30;87.20;;;;;;4996980;28;20590;-63
2021/01/28 12:44:05;;;;;;;0.20;0.20;;;7.40;87.10;;;;;;4997212;28;20392;-63
2021/01/28 12:46:31;;;;;;;0.40;0.20;;;7.40;87.10;;;;;;4998357;28;20026;-63
2021/01/28 12:48:56;;;;;;;0.35;0.10;;;7.50;87.10;;;;;;4997954;28;20363;-63
2021/01/28 12:51:22;;;;;;;0.20;0.20;;;7.50;86.90;;;;;;4998172;28;20117;-63
2021/01/28 12:53:48;;;;;;;0.13;0.10;;;7.60;87.00;;;;;;4996686;28;20101;-63
2021/01/28 12:56:14;;;;;;;0.20;0.20;;;7.60;86.90;;;;;;4998530;28;20043;-62
2021/01/28 12:58:40;;;;;;;1.40;0.20;;;7.70;86.90;;;;;;4979488;28;20041;-63
2021/01/28 13:01:05;;;;;;;0.55;0.10;;;7.80;86.80;;;;;;4998295;28;20031;-63
2021/01/28 13:03:31;;;;;;;0.20;0.20;;;7.80;86.60;;;;;;4998498;28;20037;-63
2021/01/28 13:05:57;;;;;;;0.10;0.10;;;7.80;86.70;;;;;;4980588;28;20039;-63
2021/01/28 13:08:24;;;;;;;0.10;0.10;;;7.90;86.70;;;;;;4994885;28;20029;-63
2021/01/28 13:10:50;;;;;;;0.20;0.20;;;7.90;86.70;;;;;;4996103;28;20041;-63
2021/01/28 13:13:15;;;;;;;0.30;0.30;;;7.90;86.90;;;;;;4997772;28;20065;-63
2021/01/28 13:15:41;;;;;;;0.77;0.20;;;7.90;86.70;;;;;;4995109;28;20108;-64
2021/01/28 13:18:07;;;;;;;1.27;0.40;;;8.00;86.60;;;;;;4995479;28;20030;-63
2021/01/28 13:20:33;;;;;;;0.30;0.30;;;8.00;86.60;;;;;;4978155;28;20036;-64
2021/01/28 13:23:00;;;;;;;0.35;0.20;;;8.00;86.60;;;;;;4996626;28;20498;-63
2021/01/28 13:25:27;;;;;;;0.73;0.20;;;8.10;86.70;;;;;;4997553;28;20030;-63
2021/01/28 13:27:53;;;;;;;0.75;0.20;;;8.10;86.70;;;;;;4995290;28;20469;-64
2021/01/28 13:30:21;;;;;;;0.20;0.20;;;8.10;86.60;;;;;;4997798;28;20129;-63
2021/01/28 13:32:46;;;;;;;0.20;0.20;;;8.20;86.60;;;;;;4996445;28;20049;-63
2021/01/28 13:35:16;;;;;;;0.20;0.20;;;8.20;86.40;;;;;;4979500;28;20042;-63
2021/01/28 13:37:42;;;;;;;0.20;0.20;;;8.30;86.40;;;;;;4996196;28;20441;-63
2021/01/28 13:40:09;;;;;;;0.50;0.32;;;8.30;86.40;;;;;;4997398;28;20120;-63
2021/01/28 13:42:35;;;;;;;0.35;0.20;;;8.30;86.40;;;;;;4979426;28;20045;-63
2021/01/28 13:45:02;;;;;;;0.30;0.30;;;8.30;86.40;;;;;;4998031;28;20030;-63
2021/01/28 13:47:28;;;;;;;0.20;0.20;;;8.30;86.50;;;;;;4996849;28;20046;-63
2021/01/28 13:49:54;;;;;;;0.20;0.20;;;8.40;86.70;;;;;;4997149;28;20042;-63
2021/01/28 13:52:19;;;;;;;0.20;0.20;;;8.40;86.80;;;;;;4997239;28;20121;-63